sensor_id;sensor_type;location;lat;lon;timestamp;P1;durP1;ratioP1;P2;durP2;ratioP2
59374;SDS011;45172;55.006;73.460;2023-07-08T00:00:41;20.02;;;15.68;;
59374;SDS011;45172;55.006;73.460;2023-07-08T00:03:08;21.00;;;15.30;;
59374;SDS011;45172;55.006;73.460;2023-07-08T00:05:35;22.00;;;16.00;;
59374;SDS011;45172;55.006;73.460;2023-07-08T00:08:01;20.08;;;15.30;;
59374;SDS011;45172;55.006;73.460;2023-07-08T00:10:28;20.38;;;15.48;;
59374;SDS011;45172;55.006;73.460;2023-07-08T00:12:56;23.63;;;15.82;;
59374;SDS011;45172;55.006;73.460;2023-07-08T00:15:30;21.70;;;15.05;;
59374;SDS011;45172;55.006;73.460;2023-07-08T00:17:59;19.60;;;15.85;;
59374;SDS011;45172;55.006;73.460;2023-07-08T00:22:57;24.20;;;15.40;;
59374;SDS011;45172;55.006;73.460;2023-07-08T00:25:26;17.42;;;14.23;;
59374;SDS011;45172;55.006;73.460;2023-07-08T00:27:53;18.25;;;14.02;;
59374;SDS011;45172;55.006;73.460;2023-07-08T00:32:47;18.23;;;13.65;;
59374;SDS011;45172;55.006;73.460;2023-07-08T00:35:53;21.05;;;14.32;;
59374;SDS011;45172;55.006;73.460;2023-07-08T00:38:13;17.17;;;13.63;;
59374;SDS011;45172;55.006;73.460;2023-07-08T00:40:59;17.05;;;12.95;;
59374;SDS011;45172;55.006;73.460;2023-07-08T00:48:53;13.77;;;12.15;;
59374;SDS011;45172;55.006;73.460;2023-07-08T00:51:25;16.77;;;13.23;;
59374;SDS011;45172;55.006;73.460;2023-07-08T00:53:52;19.48;;;12.88;;
59374;SDS011;45172;55.006;73.460;2023-07-08T00:56:25;22.55;;;15.50;;
59374;SDS011;45172;55.006;73.460;2023-07-08T00:58:57;62.65;;;39.88;;
59374;SDS011;45172;55.006;73.460;2023-07-08T01:01:28;24.57;;;15.40;;
59374;SDS011;45172;55.006;73.460;2023-07-08T01:04:06;22.67;;;15.05;;
59374;SDS011;45172;55.006;73.460;2023-07-08T01:06:41;17.70;;;12.82;;
59374;SDS011;45172;55.006;73.460;2023-07-08T01:09:12;22.73;;;15.52;;
59374;SDS011;45172;55.006;73.460;2023-07-08T01:11:41;18.50;;;13.35;;
59374;SDS011;45172;55.006;73.460;2023-07-08T01:14:08;19.83;;;15.02;;
59374;SDS011;45172;55.006;73.460;2023-07-08T01:16:37;16.48;;;13.10;;
59374;SDS011;45172;55.006;73.460;2023-07-08T01:19:04;19.88;;;12.07;;
59374;SDS011;45172;55.006;73.460;2023-07-08T01:21:38;17.10;;;11.10;;
59374;SDS011;45172;55.006;73.460;2023-07-08T01:24:09;16.90;;;11.57;;
59374;SDS011;45172;55.006;73.460;2023-07-08T01:26:39;17.10;;;10.63;;
59374;SDS011;45172;55.006;73.460;2023-07-08T01:29:09;19.00;;;11.90;;
59374;SDS011;45172;55.006;73.460;2023-07-08T01:31:36;14.73;;;10.25;;
59374;SDS011;45172;55.006;73.460;2023-07-08T01:34:04;15.57;;;10.93;;
59374;SDS011;45172;55.006;73.460;2023-07-08T01:36:37;12.23;;;10.80;;
59374;SDS011;45172;55.006;73.460;2023-07-08T01:39:16;12.35;;;10.07;;
59374;SDS011;45172;55.006;73.460;2023-07-08T01:41:45;16.30;;;10.43;;
59374;SDS011;45172;55.006;73.460;2023-07-08T01:44:31;19.35;;;10.27;;
59374;SDS011;45172;55.006;73.460;2023-07-08T01:47:04;12.15;;;10.05;;
59374;SDS011;45172;55.006;73.460;2023-07-08T01:49:37;13.27;;;10.20;;
59374;SDS011;45172;55.006;73.460;2023-07-08T01:52:06;13.25;;;10.30;;
59374;SDS011;45172;55.006;73.460;2023-07-08T01:54:33;17.63;;;10.52;;
59374;SDS011;45172;55.006;73.460;2023-07-08T01:56:59;15.30;;;10.25;;
59374;SDS011;45172;55.006;73.460;2023-07-08T01:59:26;14.70;;;10.10;;
59374;SDS011;45172;55.006;73.460;2023-07-08T02:01:52;11.70;;;10.25;;
59374;SDS011;45172;55.006;73.460;2023-07-08T02:04:22;14.80;;;10.38;;
59374;SDS011;45172;55.006;73.460;2023-07-08T02:06:56;12.98;;;10.00;;
59374;SDS011;45172;55.006;73.460;2023-07-08T02:09:23;16.55;;;9.77;;
59374;SDS011;45172;55.006;73.460;2023-07-08T02:11:51;11.23;;;9.23;;
59374;SDS011;45172;55.006;73.460;2023-07-08T02:14:18;23.90;;;9.50;;
59374;SDS011;45172;55.006;73.460;2023-07-08T02:16:44;18.40;;;9.60;;
59374;SDS011;45172;55.006;73.460;2023-07-08T02:19:10;14.52;;;9.40;;
59374;SDS011;45172;55.006;73.460;2023-07-08T02:21:37;13.95;;;9.45;;
59374;SDS011;45172;55.006;73.460;2023-07-08T02:24:05;11.05;;;8.80;;
59374;SDS011;45172;55.006;73.460;2023-07-08T02:26:32;12.50;;;8.52;;
59374;SDS011;45172;55.006;73.460;2023-07-08T02:28:58;12.13;;;8.68;;
59374;SDS011;45172;55.006;73.460;2023-07-08T02:31:25;11.95;;;8.73;;
59374;SDS011;45172;55.006;73.460;2023-07-08T02:33:52;12.05;;;8.63;;
59374;SDS011;45172;55.006;73.460;2023-07-08T02:36:19;12.55;;;8.60;;
59374;SDS011;45172;55.006;73.460;2023-07-08T02:38:45;12.40;;;8.80;;
59374;SDS011;45172;55.006;73.460;2023-07-08T02:41:11;10.65;;;8.80;;
59374;SDS011;45172;55.006;73.460;2023-07-08T02:43:37;14.50;;;8.73;;
59374;SDS011;45172;55.006;73.460;2023-07-08T02:46:04;10.98;;;9.02;;
59374;SDS011;45172;55.006;73.460;2023-07-08T02:48:30;11.25;;;7.82;;
59374;SDS011;45172;55.006;73.460;2023-07-08T02:50:59;13.02;;;8.13;;
59374;SDS011;45172;55.006;73.460;2023-07-08T02:53:26;13.18;;;8.05;;
59374;SDS011;45172;55.006;73.460;2023-07-08T02:55:52;12.25;;;7.85;;
59374;SDS011;45172;55.006;73.460;2023-07-08T02:58:18;17.33;;;9.25;;
59374;SDS011;45172;55.006;73.460;2023-07-08T03:00:44;8.70;;;6.97;;
59374;SDS011;45172;55.006;73.460;2023-07-08T03:03:10;10.95;;;7.60;;
59374;SDS011;45172;55.006;73.460;2023-07-08T03:05:36;10.30;;;7.30;;
59374;SDS011;45172;55.006;73.460;2023-07-08T03:08:02;12.63;;;7.53;;
59374;SDS011;45172;55.006;73.460;2023-07-08T03:10:29;13.32;;;7.80;;
59374;SDS011;45172;55.006;73.460;2023-07-08T03:12:55;23.08;;;8.25;;
59374;SDS011;45172;55.006;73.460;2023-07-08T03:15:20;10.25;;;7.93;;
59374;SDS011;45172;55.006;73.460;2023-07-08T03:18:00;16.92;;;7.80;;
59374;SDS011;45172;55.006;73.460;2023-07-08T03:20:27;12.63;;;6.82;;
59374;SDS011;45172;55.006;73.460;2023-07-08T03:22:53;8.07;;;6.70;;
59374;SDS011;45172;55.006;73.460;2023-07-08T03:25:19;9.25;;;6.25;;
59374;SDS011;45172;55.006;73.460;2023-07-08T03:27:45;10.07;;;6.63;;
59374;SDS011;45172;55.006;73.460;2023-07-08T03:30:11;8.15;;;6.20;;
59374;SDS011;45172;55.006;73.460;2023-07-08T03:32:37;8.25;;;5.85;;
59374;SDS011;45172;55.006;73.460;2023-07-08T03:35:03;7.35;;;5.75;;
59374;SDS011;45172;55.006;73.460;2023-07-08T03:37:30;21.23;;;6.65;;
59374;SDS011;45172;55.006;73.460;2023-07-08T03:39:56;13.88;;;5.90;;
59374;SDS011;45172;55.006;73.460;2023-07-08T03:42:22;13.45;;;5.75;;
59374;SDS011;45172;55.006;73.460;2023-07-08T03:44:48;6.88;;;5.50;;
59374;SDS011;45172;55.006;73.460;2023-07-08T03:47:15;7.38;;;4.88;;
59374;SDS011;45172;55.006;73.460;2023-07-08T03:49:41;8.90;;;5.35;;
59374;SDS011;45172;55.006;73.460;2023-07-08T03:52:07;13.32;;;5.47;;
59374;SDS011;45172;55.006;73.460;2023-07-08T03:54:41;8.80;;;4.88;;
59374;SDS011;45172;55.006;73.460;2023-07-08T03:57:08;5.35;;;4.25;;
59374;SDS011;45172;55.006;73.460;2023-07-08T03:59:34;9.95;;;4.45;;
59374;SDS011;45172;55.006;73.460;2023-07-08T04:02:00;8.30;;;4.18;;
59374;SDS011;45172;55.006;73.460;2023-07-08T04:04:26;9.10;;;4.40;;
59374;SDS011;45172;55.006;73.460;2023-07-08T04:06:52;8.63;;;4.55;;
59374;SDS011;45172;55.006;73.460;2023-07-08T04:09:20;5.32;;;4.22;;
59374;SDS011;45172;55.006;73.460;2023-07-08T04:11:47;7.35;;;4.53;;
59374;SDS011;45172;55.006;73.460;2023-07-08T04:14:13;10.63;;;4.60;;
59374;SDS011;45172;55.006;73.460;2023-07-08T04:20:59;6.93;;;4.82;;
59374;SDS011;45172;55.006;73.460;2023-07-08T04:23:25;8.63;;;4.50;;
59374;SDS011;45172;55.006;73.460;2023-07-08T04:25:53;6.50;;;3.70;;
59374;SDS011;45172;55.006;73.460;2023-07-08T04:28:21;9.50;;;4.50;;
59374;SDS011;45172;55.006;73.460;2023-07-08T04:30:47;13.45;;;4.00;;
59374;SDS011;45172;55.006;73.460;2023-07-08T04:33:13;10.55;;;3.95;;
59374;SDS011;45172;55.006;73.460;2023-07-08T04:35:40;8.07;;;4.35;;
59374;SDS011;45172;55.006;73.460;2023-07-08T04:40:47;5.45;;;3.58;;
59374;SDS011;45172;55.006;73.460;2023-07-08T04:43:14;9.10;;;3.92;;
59374;SDS011;45172;55.006;73.460;2023-07-08T04:45:41;12.82;;;3.85;;
59374;SDS011;45172;55.006;73.460;2023-07-08T04:48:13;6.50;;;3.53;;
59374;SDS011;45172;55.006;73.460;2023-07-08T04:50:43;7.35;;;3.42;;
59374;SDS011;45172;55.006;73.460;2023-07-08T04:53:11;7.88;;;3.55;;
59374;SDS011;45172;55.006;73.460;2023-07-08T04:55:39;4.28;;;3.10;;
59374;SDS011;45172;55.006;73.460;2023-07-08T05:01:57;5.05;;;2.88;;
59374;SDS011;45172;55.006;73.460;2023-07-08T05:04:25;6.18;;;3.30;;
59374;SDS011;45172;55.006;73.460;2023-07-08T05:06:52;8.80;;;2.65;;
59374;SDS011;45172;55.006;73.460;2023-07-08T05:09:18;8.88;;;3.20;;
59374;SDS011;45172;55.006;73.460;2023-07-08T05:11:44;5.45;;;2.60;;
59374;SDS011;45172;55.006;73.460;2023-07-08T05:14:11;6.63;;;3.25;;
59374;SDS011;45172;55.006;73.460;2023-07-08T05:16:38;5.78;;;3.42;;
59374;SDS011;45172;55.006;73.460;2023-07-08T05:19:06;5.78;;;2.78;;
59374;SDS011;45172;55.006;73.460;2023-07-08T05:21:32;8.63;;;2.78;;
59374;SDS011;45172;55.006;73.460;2023-07-08T05:24:04;6.53;;;2.65;;
59374;SDS011;45172;55.006;73.460;2023-07-08T05:26:31;8.90;;;2.40;;
59374;SDS011;45172;55.006;73.460;2023-07-08T05:28:58;3.47;;;2.63;;
59374;SDS011;45172;55.006;73.460;2023-07-08T05:31:24;7.55;;;2.55;;
59374;SDS011;45172;55.006;73.460;2023-07-08T05:33:50;6.05;;;2.53;;
59374;SDS011;45172;55.006;73.460;2023-07-08T05:36:17;7.70;;;2.97;;
59374;SDS011;45172;55.006;73.460;2023-07-08T05:38:43;8.82;;;3.13;;
59374;SDS011;45172;55.006;73.460;2023-07-08T05:41:10;5.40;;;2.85;;
59374;SDS011;45172;55.006;73.460;2023-07-08T05:43:37;8.05;;;2.70;;
59374;SDS011;45172;55.006;73.460;2023-07-08T05:46:04;11.70;;;2.88;;
59374;SDS011;45172;55.006;73.460;2023-07-08T05:48:30;7.03;;;2.47;;
59374;SDS011;45172;55.006;73.460;2023-07-08T05:50:56;3.70;;;2.28;;
59374;SDS011;45172;55.006;73.460;2023-07-08T05:53:23;6.20;;;2.88;;
59374;SDS011;45172;55.006;73.460;2023-07-08T05:55:49;6.22;;;2.60;;
59374;SDS011;45172;55.006;73.460;2023-07-08T05:58:16;7.07;;;2.90;;
59374;SDS011;45172;55.006;73.460;2023-07-08T06:00:42;8.27;;;2.92;;
59374;SDS011;45172;55.006;73.460;2023-07-08T06:03:09;5.78;;;2.70;;
59374;SDS011;45172;55.006;73.460;2023-07-08T06:05:36;5.00;;;2.50;;
59374;SDS011;45172;55.006;73.460;2023-07-08T06:08:03;3.75;;;2.30;;
59374;SDS011;45172;55.006;73.460;2023-07-08T06:10:31;3.85;;;1.90;;
59374;SDS011;45172;55.006;73.460;2023-07-08T06:12:57;6.18;;;1.98;;
59374;SDS011;45172;55.006;73.460;2023-07-08T06:15:23;3.00;;;1.80;;
59374;SDS011;45172;55.006;73.460;2023-07-08T06:17:49;5.40;;;1.73;;
59374;SDS011;45172;55.006;73.460;2023-07-08T06:20:16;5.30;;;2.40;;
59374;SDS011;45172;55.006;73.460;2023-07-08T06:22:42;6.03;;;2.08;;
59374;SDS011;45172;55.006;73.460;2023-07-08T06:25:08;4.13;;;2.00;;
59374;SDS011;45172;55.006;73.460;2023-07-08T06:27:34;3.53;;;2.05;;
59374;SDS011;45172;55.006;73.460;2023-07-08T06:30:01;4.32;;;2.10;;
59374;SDS011;45172;55.006;73.460;2023-07-08T06:32:27;3.47;;;2.10;;
59374;SDS011;45172;55.006;73.460;2023-07-08T06:34:53;4.93;;;2.08;;
59374;SDS011;45172;55.006;73.460;2023-07-08T06:37:19;4.38;;;2.33;;
59374;SDS011;45172;55.006;73.460;2023-07-08T06:39:45;3.08;;;2.20;;
59374;SDS011;45172;55.006;73.460;2023-07-08T06:42:11;4.60;;;2.13;;
59374;SDS011;45172;55.006;73.460;2023-07-08T06:44:38;8.18;;;2.33;;
59374;SDS011;45172;55.006;73.460;2023-07-08T06:47:04;3.42;;;2.22;;
59374;SDS011;45172;55.006;73.460;2023-07-08T06:49:30;2.17;;;1.98;;
59374;SDS011;45172;55.006;73.460;2023-07-08T06:51:56;4.97;;;2.35;;
59374;SDS011;45172;55.006;73.460;2023-07-08T06:54:25;5.85;;;2.42;;
59374;SDS011;45172;55.006;73.460;2023-07-08T06:56:53;5.10;;;2.67;;
59374;SDS011;45172;55.006;73.460;2023-07-08T06:59:19;3.20;;;2.30;;
59374;SDS011;45172;55.006;73.460;2023-07-08T07:01:47;3.53;;;2.50;;
59374;SDS011;45172;55.006;73.460;2023-07-08T07:04:13;3.10;;;2.38;;
59374;SDS011;45172;55.006;73.460;2023-07-08T07:06:39;5.20;;;2.40;;
59374;SDS011;45172;55.006;73.460;2023-07-08T07:09:05;3.17;;;2.40;;
59374;SDS011;45172;55.006;73.460;2023-07-08T07:11:31;3.15;;;2.13;;
59374;SDS011;45172;55.006;73.460;2023-07-08T07:13:57;4.43;;;2.58;;
59374;SDS011;45172;55.006;73.460;2023-07-08T07:16:23;6.97;;;2.65;;
59374;SDS011;45172;55.006;73.460;2023-07-08T07:18:49;6.35;;;2.70;;
59374;SDS011;45172;55.006;73.460;2023-07-08T07:21:17;4.35;;;2.88;;
59374;SDS011;45172;55.006;73.460;2023-07-08T07:23:43;3.50;;;2.55;;
59374;SDS011;45172;55.006;73.460;2023-07-08T07:26:09;4.78;;;2.75;;
59374;SDS011;45172;55.006;73.460;2023-07-08T07:28:36;4.80;;;2.70;;
59374;SDS011;45172;55.006;73.460;2023-07-08T07:31:02;3.47;;;2.75;;
59374;SDS011;45172;55.006;73.460;2023-07-08T07:33:31;4.22;;;2.70;;
59374;SDS011;45172;55.006;73.460;2023-07-08T07:35:57;5.55;;;3.45;;
59374;SDS011;45172;55.006;73.460;2023-07-08T07:38:24;3.83;;;2.97;;
59374;SDS011;45172;55.006;73.460;2023-07-08T07:40:55;3.28;;;2.97;;
59374;SDS011;45172;55.006;73.460;2023-07-08T07:43:22;10.32;;;2.70;;
59374;SDS011;45172;55.006;73.460;2023-07-08T07:45:51;5.43;;;2.65;;
59374;SDS011;45172;55.006;73.460;2023-07-08T07:48:18;4.38;;;3.58;;
59374;SDS011;45172;55.006;73.460;2023-07-08T07:50:46;4.03;;;3.25;;
59374;SDS011;45172;55.006;73.460;2023-07-08T07:53:13;5.70;;;2.80;;
59374;SDS011;45172;55.006;73.460;2023-07-08T07:55:39;5.13;;;3.00;;
59374;SDS011;45172;55.006;73.460;2023-07-08T07:58:05;4.80;;;2.83;;
59374;SDS011;45172;55.006;73.460;2023-07-08T08:00:31;5.20;;;2.70;;
59374;SDS011;45172;55.006;73.460;2023-07-08T08:02:57;5.03;;;2.90;;
59374;SDS011;45172;55.006;73.460;2023-07-08T08:05:23;6.13;;;2.70;;
59374;SDS011;45172;55.006;73.460;2023-07-08T08:07:50;4.10;;;2.70;;
59374;SDS011;45172;55.006;73.460;2023-07-08T08:10:16;8.30;;;2.83;;
59374;SDS011;45172;55.006;73.460;2023-07-08T08:12:42;14.10;;;4.13;;
59374;SDS011;45172;55.006;73.460;2023-07-08T08:15:08;6.25;;;3.47;;
59374;SDS011;45172;55.006;73.460;2023-07-08T08:17:35;7.00;;;4.03;;
59374;SDS011;45172;55.006;73.460;2023-07-08T08:20:01;6.35;;;4.30;;
59374;SDS011;45172;55.006;73.460;2023-07-08T08:22:27;4.20;;;3.22;;
59374;SDS011;45172;55.006;73.460;2023-07-08T08:24:53;6.75;;;4.53;;
59374;SDS011;45172;55.006;73.460;2023-07-08T08:27:19;5.07;;;2.90;;
59374;SDS011;45172;55.006;73.460;2023-07-08T08:29:46;4.80;;;2.92;;
59374;SDS011;45172;55.006;73.460;2023-07-08T08:32:12;6.47;;;3.20;;
59374;SDS011;45172;55.006;73.460;2023-07-08T08:34:39;6.15;;;2.63;;
59374;SDS011;45172;55.006;73.460;2023-07-08T08:37:06;5.85;;;3.00;;
59374;SDS011;45172;55.006;73.460;2023-07-08T08:39:32;6.75;;;3.00;;
59374;SDS011;45172;55.006;73.460;2023-07-08T08:41:58;6.45;;;2.67;;
59374;SDS011;45172;55.006;73.460;2023-07-08T08:44:29;4.15;;;2.50;;
59374;SDS011;45172;55.006;73.460;2023-07-08T08:47:22;5.80;;;3.03;;
59374;SDS011;45172;55.006;73.460;2023-07-08T08:52:57;5.80;;;3.38;;
59374;SDS011;45172;55.006;73.460;2023-07-08T08:55:26;4.40;;;2.67;;
59374;SDS011;45172;55.006;73.460;2023-07-08T09:00:43;6.15;;;2.53;;
59374;SDS011;45172;55.006;73.460;2023-07-08T09:03:17;5.60;;;2.65;;
59374;SDS011;45172;55.006;73.460;2023-07-08T09:05:47;5.57;;;3.38;;
59374;SDS011;45172;55.006;73.460;2023-07-08T09:08:20;4.93;;;2.40;;
59374;SDS011;45172;55.006;73.460;2023-07-08T09:10:57;3.90;;;2.30;;
59374;SDS011;45172;55.006;73.460;2023-07-08T09:13:29;5.13;;;2.50;;
59374;SDS011;45172;55.006;73.460;2023-07-08T09:21:44;5.13;;;3.60;;
59374;SDS011;45172;55.006;73.460;2023-07-08T09:24:19;4.60;;;2.65;;
59374;SDS011;45172;55.006;73.460;2023-07-08T09:26:53;5.20;;;2.63;;
59374;SDS011;45172;55.006;73.460;2023-07-08T09:29:22;4.78;;;2.28;;
59374;SDS011;45172;55.006;73.460;2023-07-08T09:31:52;12.35;;;2.83;;
59374;SDS011;45172;55.006;73.460;2023-07-08T09:34:20;2.90;;;2.28;;
59374;SDS011;45172;55.006;73.460;2023-07-08T09:36:49;4.88;;;2.28;;
59374;SDS011;45172;55.006;73.460;2023-07-08T09:39:18;5.72;;;2.90;;
59374;SDS011;45172;55.006;73.460;2023-07-08T09:41:47;8.55;;;2.40;;
59374;SDS011;45172;55.006;73.460;2023-07-08T09:44:22;7.85;;;4.25;;
59374;SDS011;45172;55.006;73.460;2023-07-08T09:46:56;4.70;;;2.85;;
59374;SDS011;45172;55.006;73.460;2023-07-08T09:49:31;4.68;;;3.58;;
59374;SDS011;45172;55.006;73.460;2023-07-08T09:52:00;10.38;;;8.85;;
59374;SDS011;45172;55.006;73.460;2023-07-08T09:54:27;8.48;;;4.80;;
59374;SDS011;45172;55.006;73.460;2023-07-08T09:59:38;6.07;;;3.25;;
59374;SDS011;45172;55.006;73.460;2023-07-08T10:05:06;4.32;;;2.90;;
59374;SDS011;45172;55.006;73.460;2023-07-08T10:07:39;9.00;;;2.70;;
59374;SDS011;45172;55.006;73.460;2023-07-08T10:10:10;3.75;;;2.80;;
59374;SDS011;45172;55.006;73.460;2023-07-08T10:12:42;4.88;;;2.45;;
59374;SDS011;45172;55.006;73.460;2023-07-08T10:15:27;4.70;;;2.38;;
59374;SDS011;45172;55.006;73.460;2023-07-08T10:17:55;6.10;;;2.72;;
59374;SDS011;45172;55.006;73.460;2023-07-08T10:20:21;6.93;;;2.50;;
59374;SDS011;45172;55.006;73.460;2023-07-08T10:23:02;5.07;;;2.50;;
59374;SDS011;45172;55.006;73.460;2023-07-08T10:33:51;19.60;;;4.38;;
59374;SDS011;45172;55.006;73.460;2023-07-08T10:39:23;3.75;;;2.60;;
59374;SDS011;45172;55.006;73.460;2023-07-08T10:42:27;3.78;;;3.10;;
59374;SDS011;45172;55.006;73.460;2023-07-08T10:55:59;4.03;;;2.65;;
59374;SDS011;45172;55.006;73.460;2023-07-08T10:58:46;5.35;;;2.90;;
59374;SDS011;45172;55.006;73.460;2023-07-08T11:04:27;4.72;;;3.55;;
59374;SDS011;45172;55.006;73.460;2023-07-08T11:10:17;4.95;;;2.70;;
59374;SDS011;45172;55.006;73.460;2023-07-08T11:12:52;2.75;;;2.35;;
59374;SDS011;45172;55.006;73.460;2023-07-08T11:15:22;6.40;;;2.50;;
59374;SDS011;45172;55.006;73.460;2023-07-08T11:18:06;3.70;;;2.42;;
59374;SDS011;45172;55.006;73.460;2023-07-08T11:20:41;6.90;;;2.33;;
59374;SDS011;45172;55.006;73.460;2023-07-08T11:23:21;6.15;;;2.10;;
59374;SDS011;45172;55.006;73.460;2023-07-08T11:25:54;6.15;;;2.38;;
59374;SDS011;45172;55.006;73.460;2023-07-08T11:28:35;4.85;;;2.05;;
59374;SDS011;45172;55.006;73.460;2023-07-08T11:31:04;2.75;;;2.20;;
59374;SDS011;45172;55.006;73.460;2023-07-08T11:33:31;5.47;;;2.30;;
59374;SDS011;45172;55.006;73.460;2023-07-08T11:36:01;3.45;;;2.50;;
59374;SDS011;45172;55.006;73.460;2023-07-08T11:38:32;3.55;;;2.10;;
59374;SDS011;45172;55.006;73.460;2023-07-08T11:41:32;5.90;;;2.22;;
59374;SDS011;45172;55.006;73.460;2023-07-08T11:43:58;9.88;;;2.58;;
59374;SDS011;45172;55.006;73.460;2023-07-08T11:46:29;6.93;;;2.50;;
59374;SDS011;45172;55.006;73.460;2023-07-08T11:49:21;4.70;;;2.00;;
59374;SDS011;45172;55.006;73.460;2023-07-08T11:51:46;8.30;;;1.88;;
59374;SDS011;45172;55.006;73.460;2023-07-08T11:54:14;5.30;;;2.17;;
59374;SDS011;45172;55.006;73.460;2023-07-08T11:56:50;3.30;;;1.90;;
59374;SDS011;45172;55.006;73.460;2023-07-08T11:59:26;9.82;;;2.95;;
59374;SDS011;45172;55.006;73.460;2023-07-08T12:02:02;3.35;;;1.60;;
59374;SDS011;45172;55.006;73.460;2023-07-08T12:04:59;3.00;;;1.40;;
59374;SDS011;45172;55.006;73.460;2023-07-08T12:07:42;9.23;;;4.30;;
59374;SDS011;45172;55.006;73.460;2023-07-08T12:10:17;6.93;;;2.03;;
59374;SDS011;45172;55.006;73.460;2023-07-08T12:12:52;7.90;;;1.63;;
59374;SDS011;45172;55.006;73.460;2023-07-08T12:15:23;6.50;;;1.70;;
59374;SDS011;45172;55.006;73.460;2023-07-08T12:17:51;3.63;;;1.45;;
59374;SDS011;45172;55.006;73.460;2023-07-08T12:20:22;4.60;;;1.90;;
59374;SDS011;45172;55.006;73.460;2023-07-08T12:23:00;15.10;;;2.55;;
59374;SDS011;45172;55.006;73.460;2023-07-08T12:25:28;15.40;;;2.17;;
59374;SDS011;45172;55.006;73.460;2023-07-08T12:27:58;8.38;;;1.95;;
59374;SDS011;45172;55.006;73.460;2023-07-08T12:30:25;3.90;;;2.30;;
59374;SDS011;45172;55.006;73.460;2023-07-08T12:32:55;7.20;;;2.10;;
59374;SDS011;45172;55.006;73.460;2023-07-08T12:35:32;4.75;;;3.00;;
59374;SDS011;45172;55.006;73.460;2023-07-08T12:38:00;1.95;;;1.65;;
59374;SDS011;45172;55.006;73.460;2023-07-08T12:40:30;3.35;;;1.63;;
59374;SDS011;45172;55.006;73.460;2023-07-08T12:43:00;4.18;;;1.65;;
59374;SDS011;45172;55.006;73.460;2023-07-08T12:45:26;4.15;;;1.85;;
59374;SDS011;45172;55.006;73.460;2023-07-08T12:47:57;3.35;;;1.40;;
59374;SDS011;45172;55.006;73.460;2023-07-08T12:50:24;5.10;;;1.58;;
59374;SDS011;45172;55.006;73.460;2023-07-08T12:52:50;4.63;;;1.63;;
59374;SDS011;45172;55.006;73.460;2023-07-08T12:55:16;7.03;;;2.17;;
59374;SDS011;45172;55.006;73.460;2023-07-08T12:57:44;8.13;;;5.50;;
59374;SDS011;45172;55.006;73.460;2023-07-08T13:00:33;5.93;;;2.00;;
59374;SDS011;45172;55.006;73.460;2023-07-08T13:03:08;3.65;;;1.80;;
59374;SDS011;45172;55.006;73.460;2023-07-08T13:05:43;3.80;;;1.83;;
59374;SDS011;45172;55.006;73.460;2023-07-08T13:08:14;6.85;;;1.80;;
59374;SDS011;45172;55.006;73.460;2023-07-08T13:13:44;5.15;;;1.88;;
59374;SDS011;45172;55.006;73.460;2023-07-08T13:16:05;6.65;;;3.00;;
59374;SDS011;45172;55.006;73.460;2023-07-08T13:18:34;30.42;;;20.42;;
59374;SDS011;45172;55.006;73.460;2023-07-08T13:21:06;15.40;;;9.63;;
59374;SDS011;45172;55.006;73.460;2023-07-08T13:23:36;12.50;;;6.75;;
59374;SDS011;45172;55.006;73.460;2023-07-08T13:26:11;39.95;;;27.40;;
59374;SDS011;45172;55.006;73.460;2023-07-08T13:28:42;26.88;;;21.67;;
59374;SDS011;45172;55.006;73.460;2023-07-08T13:31:14;10.00;;;6.20;;
59374;SDS011;45172;55.006;73.460;2023-07-08T13:33:46;7.25;;;2.45;;
59374;SDS011;45172;55.006;73.460;2023-07-08T13:36:16;6.63;;;1.45;;
59374;SDS011;45172;55.006;73.460;2023-07-08T13:38:44;4.25;;;1.63;;
59374;SDS011;45172;55.006;73.460;2023-07-08T13:41:13;1.77;;;1.25;;
59374;SDS011;45172;55.006;73.460;2023-07-08T13:43:46;1.98;;;1.02;;
59374;SDS011;45172;55.006;73.460;2023-07-08T13:49:02;5.18;;;1.33;;
59374;SDS011;45172;55.006;73.460;2023-07-08T13:51:36;11.95;;;9.15;;
59374;SDS011;45172;55.006;73.460;2023-07-08T13:54:22;6.75;;;3.72;;
59374;SDS011;45172;55.006;73.460;2023-07-08T13:56:49;3.85;;;2.00;;
59374;SDS011;45172;55.006;73.460;2023-07-08T13:59:22;6.95;;;2.22;;
59374;SDS011;45172;55.006;73.460;2023-07-08T14:01:53;4.18;;;2.40;;
59374;SDS011;45172;55.006;73.460;2023-07-08T14:04:25;4.95;;;3.35;;
59374;SDS011;45172;55.006;73.460;2023-07-08T14:06:59;9.27;;;4.68;;
59374;SDS011;45172;55.006;73.460;2023-07-08T14:09:26;9.02;;;5.70;;
59374;SDS011;45172;55.006;73.460;2023-07-08T14:11:52;15.05;;;3.97;;
59374;SDS011;45172;55.006;73.460;2023-07-08T14:14:19;7.10;;;4.25;;
59374;SDS011;45172;55.006;73.460;2023-07-08T14:16:51;12.50;;;6.53;;
59374;SDS011;45172;55.006;73.460;2023-07-08T14:19:41;16.63;;;10.38;;
59374;SDS011;45172;55.006;73.460;2023-07-08T14:22:20;53.38;;;22.95;;
59374;SDS011;45172;55.006;73.460;2023-07-08T14:24:49;21.13;;;9.68;;
59374;SDS011;45172;55.006;73.460;2023-07-08T14:27:15;16.05;;;8.85;;
59374;SDS011;45172;55.006;73.460;2023-07-08T14:29:45;16.02;;;6.93;;
59374;SDS011;45172;55.006;73.460;2023-07-08T14:34:42;12.68;;;5.32;;
59374;SDS011;45172;55.006;73.460;2023-07-08T14:37:15;10.75;;;8.75;;
59374;SDS011;45172;55.006;73.460;2023-07-08T14:39:43;20.95;;;16.30;;
59374;SDS011;45172;55.006;73.460;2023-07-08T14:42:11;37.83;;;22.33;;
59374;SDS011;45172;55.006;73.460;2023-07-08T14:44:39;55.60;;;44.35;;
59374;SDS011;45172;55.006;73.460;2023-07-08T14:47:08;33.95;;;23.00;;
59374;SDS011;45172;55.006;73.460;2023-07-08T14:49:38;20.63;;;11.38;;
59374;SDS011;45172;55.006;73.460;2023-07-08T14:52:04;16.55;;;10.35;;
59374;SDS011;45172;55.006;73.460;2023-07-08T14:54:30;29.38;;;13.25;;
59374;SDS011;45172;55.006;73.460;2023-07-08T14:56:56;28.13;;;16.85;;
59374;SDS011;45172;55.006;73.460;2023-07-08T14:59:24;18.65;;;8.75;;
59374;SDS011;45172;55.006;73.460;2023-07-08T15:01:52;12.63;;;5.85;;
59374;SDS011;45172;55.006;73.460;2023-07-08T15:04:21;9.38;;;6.60;;
59374;SDS011;45172;55.006;73.460;2023-07-08T15:06:48;20.35;;;5.47;;
59374;SDS011;45172;55.006;73.460;2023-07-08T15:09:16;17.95;;;6.72;;
59374;SDS011;45172;55.006;73.460;2023-07-08T15:11:43;11.60;;;7.30;;
59374;SDS011;45172;55.006;73.460;2023-07-08T15:14:28;13.57;;;8.98;;
59374;SDS011;45172;55.006;73.460;2023-07-08T15:16:55;19.45;;;10.73;;
59374;SDS011;45172;55.006;73.460;2023-07-08T15:19:23;23.40;;;15.15;;
59374;SDS011;45172;55.006;73.460;2023-07-08T15:21:50;23.27;;;15.68;;
59374;SDS011;45172;55.006;73.460;2023-07-08T15:24:16;31.23;;;19.60;;
59374;SDS011;45172;55.006;73.460;2023-07-08T15:26:43;33.17;;;17.65;;
59374;SDS011;45172;55.006;73.460;2023-07-08T15:29:16;36.42;;;21.05;;
59374;SDS011;45172;55.006;73.460;2023-07-08T15:31:45;184.30;;;85.05;;
59374;SDS011;45172;55.006;73.460;2023-07-08T15:34:15;74.45;;;34.53;;
59374;SDS011;45172;55.006;73.460;2023-07-08T15:36:42;108.22;;;50.55;;
59374;SDS011;45172;55.006;73.460;2023-07-08T15:39:09;123.03;;;51.92;;
59374;SDS011;45172;55.006;73.460;2023-07-08T15:41:36;70.28;;;33.50;;
59374;SDS011;45172;55.006;73.460;2023-07-08T15:44:04;52.15;;;25.58;;
59374;SDS011;45172;55.006;73.460;2023-07-08T15:46:35;67.63;;;29.45;;
59374;SDS011;45172;55.006;73.460;2023-07-08T15:49:10;47.50;;;24.80;;
59374;SDS011;45172;55.006;73.460;2023-07-08T15:51:43;28.00;;;15.85;;
59374;SDS011;45172;55.006;73.460;2023-07-08T15:54:10;40.20;;;17.25;;